createdAt,value
2016-06-08T00:00:51.855Z,0
2016-06-08T00:01:51.734Z,0
2016-06-08T00:02:51.830Z,0
2016-06-08T00:03:51.863Z,0
2016-06-08T00:04:51.788Z,0
2016-06-08T00:05:51.759Z,0
2016-06-08T00:06:51.747Z,0
2016-06-08T00:07:51.733Z,0
2016-06-08T00:08:51.721Z,0
2016-06-08T00:09:51.692Z,0
2016-06-08T00:10:51.507Z,0
2016-06-08T00:11:51.650Z,0
2016-06-08T00:12:51.637Z,0
2016-06-08T00:13:51.624Z,0
2016-06-08T00:14:51.596Z,0
2016-06-08T00:15:51.568Z,0
2016-06-08T00:16:51.555Z,0
2016-06-08T00:17:51.526Z,0
2016-06-08T00:18:51.513Z,0
2016-06-08T00:19:51.500Z,0
2016-06-08T00:20:51.471Z,0
2016-06-08T00:21:51.459Z,0
2016-06-08T00:22:51.430Z,0
2016-06-08T00:23:51.417Z,0
2016-06-08T00:24:51.403Z,0
2016-06-08T00:25:51.376Z,0
2016-06-08T00:26:51.878Z,0
2016-06-08T00:27:51.350Z,0
2016-06-08T00:28:51.320Z,0
2016-06-08T00:29:51.292Z,0
2016-06-08T00:30:51.280Z,0
2016-06-08T00:31:51.267Z,0
2016-06-08T00:32:51.239Z,0
2016-06-08T00:33:51.225Z,0
2016-06-08T00:34:51.212Z,0
2016-06-08T00:35:51.183Z,0
2016-06-08T00:36:51.186Z,0
2016-06-08T00:37:51.142Z,0
2016-06-08T00:38:51.129Z,0
2016-06-08T00:39:51.101Z,0
2016-06-08T00:40:51.088Z,0
2016-06-08T00:41:51.435Z,0
2016-06-08T00:42:51.047Z,0
2016-06-08T00:43:51.033Z,0
2016-06-08T00:44:51.005Z,0
2016-06-08T00:45:50.991Z,0
2016-06-08T00:46:50.823Z,0
2016-06-08T00:47:50.966Z,0
2016-06-08T00:48:50.954Z,0
2016-06-08T00:49:50.909Z,0
2016-06-08T00:50:50.740Z,0
2016-06-08T00:51:50.882Z,0
2016-06-08T00:52:50.854Z,0
2016-06-08T00:53:50.826Z,0
2016-06-08T00:54:50.828Z,0
2016-06-08T00:55:50.801Z,0
2016-06-08T00:56:52.084Z,0
2016-06-08T00:57:50.759Z,0
2016-06-08T00:58:50.746Z,0
2016-06-08T00:59:50.717Z,0
2016-06-08T01:00:50.736Z,0
2016-06-08T01:01:50.675Z,0
2016-06-08T01:02:50.662Z,0
2016-06-08T01:03:50.634Z,0
2016-06-08T01:04:50.622Z,0
2016-06-08T01:05:50.608Z,0
2016-06-08T01:06:50.580Z,0
2016-06-08T01:07:50.550Z,0
2016-06-08T01:08:50.538Z,0
2016-06-08T01:09:50.385Z,0
2016-06-08T01:10:50.512Z,0
2016-06-08T01:11:51.109Z,0
2016-06-08T01:12:50.471Z,0
2016-06-08T01:13:50.442Z,0
2016-06-08T01:14:50.430Z,0
2016-06-08T01:15:50.416Z,0
2016-06-08T01:16:50.388Z,0
2016-06-08T01:17:50.374Z,0
2016-06-08T01:18:50.362Z,0
2016-06-08T01:19:50.318Z,0
2016-06-08T01:20:50.321Z,0
2016-06-08T01:21:50.292Z,0
2016-06-08T01:22:50.279Z,0
2016-06-08T01:23:50.251Z,0
2016-06-08T01:24:50.237Z,0
2016-06-08T01:25:50.209Z,0
2016-06-08T01:26:50.586Z,0
2016-06-08T01:27:50.012Z,0
2016-06-08T01:28:50.154Z,0
2016-06-08T01:29:50.126Z,0
2016-06-08T01:30:50.113Z,0
2016-06-08T01:31:50.084Z,0
2016-06-08T01:32:50.072Z,0
2016-06-08T01:33:50.058Z,0
2016-06-08T01:34:50.045Z,0
2016-06-08T01:35:50.017Z,0
2016-06-08T01:36:49.848Z,0
2016-06-08T01:37:49.975Z,0
2016-06-08T01:38:49.963Z,0
2016-06-08T01:39:49.933Z,0
2016-06-08T01:40:49.921Z,0
2016-06-08T01:41:51.080Z,0
2016-06-08T01:42:49.879Z,0
2016-06-08T01:43:49.711Z,0
2016-06-08T01:44:49.838Z,0
2016-06-08T01:45:49.669Z,0
2016-06-08T01:46:49.797Z,0
2016-06-08T01:47:49.627Z,0
2016-06-08T01:48:49.771Z,0
2016-06-08T01:49:49.757Z,0
2016-06-08T01:50:49.745Z,0
2016-06-08T01:51:49.732Z,0
2016-06-08T01:52:49.688Z,0
2016-06-08T01:53:49.674Z,0
2016-06-08T01:54:49.646Z,0
2016-06-08T01:55:49.617Z,0
2016-06-08T01:56:49.620Z,0
2016-06-08T01:57:50.060Z,0
2016-06-08T01:58:49.563Z,0
2016-06-08T01:59:49.551Z,0
2016-06-08T02:00:49.522Z,0
2016-06-08T02:01:49.509Z,0
2016-06-08T02:02:49.340Z,0
2016-06-08T02:03:49.483Z,0
2016-06-08T02:04:49.454Z,0
2016-06-08T02:05:49.441Z,0
2016-06-08T02:06:49.413Z,0
2016-06-08T02:07:49.384Z,0
2016-06-08T02:08:49.372Z,0
2016-06-08T02:09:49.342Z,0
2016-06-08T02:10:49.330Z,0
2016-06-08T02:11:49.332Z,0
2016-06-08T02:12:50.820Z,0
2016-06-08T02:13:49.275Z,0
2016-06-08T02:14:49.247Z,0
2016-06-08T02:15:49.234Z,0
2016-06-08T02:16:49.205Z,0
2016-06-08T02:17:49.193Z,0
2016-06-08T02:18:49.180Z,0
2016-06-08T02:19:49.166Z,0
2016-06-08T02:20:49.138Z,0
2016-06-08T02:21:49.109Z,0
2016-06-08T02:22:49.096Z,0
2016-06-08T02:23:49.084Z,0
2016-06-08T02:24:49.055Z,0
2016-06-08T02:25:49.057Z,0
2016-06-08T02:26:49.029Z,0
2016-06-08T02:27:50.281Z,0
2016-06-08T02:28:48.972Z,0
2016-06-08T02:29:48.975Z,0
2016-06-08T02:30:48.945Z,0
2016-06-08T02:31:48.918Z,0
2016-06-08T02:32:48.889Z,0
2016-06-08T02:33:48.876Z,0
2016-06-08T02:34:48.864Z,0
2016-06-08T02:35:48.834Z,0
2016-06-08T02:36:48.822Z,0
2016-06-08T02:37:48.809Z,0
2016-06-08T02:38:48.780Z,0
2016-06-08T02:39:48.767Z,0
2016-06-08T02:40:48.739Z,0
2016-06-08T02:41:49.960Z,0
2016-06-08T02:42:49.166Z,0
2016-06-08T02:43:48.683Z,0
2016-06-08T02:44:48.671Z,0
2016-06-08T02:45:48.644Z,0
2016-06-08T02:46:48.629Z,0
2016-06-08T02:47:48.602Z,0
2016-06-08T02:48:48.619Z,0
2016-06-08T02:49:48.575Z,0
2016-06-08T02:50:48.547Z,0
2016-06-08T02:51:48.518Z,0
2016-06-08T02:52:48.490Z,0
2016-06-08T02:53:48.477Z,0
2016-06-08T02:54:48.463Z,5
2016-06-08T02:55:48.295Z,5
2016-06-08T02:56:49.735Z,5
2016-06-08T02:57:49.159Z,5
2016-06-08T02:58:48.381Z,5
2016-06-08T02:59:48.367Z,5
2016-06-08T03:00:48.354Z,10
2016-06-08T03:01:48.327Z,10
2016-06-08T03:02:48.297Z,10
2016-06-08T03:03:48.301Z,10
2016-06-08T03:04:48.272Z,10
2016-06-08T03:05:48.243Z,10
2016-06-08T03:06:48.215Z,15
2016-06-08T03:07:48.217Z,15
2016-06-08T03:08:48.173Z,15
2016-06-08T03:09:48.161Z,15
2016-06-08T03:10:48.147Z,20
2016-06-08T03:11:48.744Z,20
2016-06-08T03:12:47.809Z,20
2016-06-08T03:13:48.093Z,20
2016-06-08T03:14:48.064Z,25
2016-06-08T03:15:48.035Z,25
2016-06-08T03:16:48.022Z,25
2016-06-08T03:17:48.011Z,30
2016-06-08T03:18:47.982Z,30
2016-06-08T03:19:47.969Z,30
2016-06-08T03:20:47.940Z,35
2016-06-08T03:21:47.927Z,35
2016-06-08T03:22:47.913Z,40
2016-06-08T03:23:47.901Z,40
2016-06-08T03:24:47.873Z,45
2016-06-08T03:25:47.844Z,45
2016-06-08T03:26:48.894Z,50
2016-06-08T03:27:48.115Z,50
2016-06-08T03:28:47.634Z,50
2016-06-08T03:29:47.761Z,55
2016-06-08T03:30:47.748Z,55
2016-06-08T03:31:47.734Z,60
2016-06-08T03:32:47.706Z,65
2016-06-08T03:33:47.694Z,65
2016-06-08T03:34:47.525Z,70
2016-06-08T03:35:47.653Z,75
2016-06-08T03:36:47.623Z,80
2016-06-08T03:37:47.611Z,85
2016-06-08T03:38:47.582Z,85
2016-06-08T03:39:47.569Z,90
2016-06-08T03:40:47.556Z,95
2016-06-08T03:41:47.544Z,100
2016-06-08T03:42:47.875Z,100
2016-06-08T03:43:47.502Z,105
2016-06-08T03:44:47.473Z,110
2016-06-08T03:45:47.445Z,110
2016-06-08T03:46:47.432Z,115
2016-06-08T03:47:47.418Z,120
2016-06-08T03:48:47.250Z,125
2016-06-08T03:49:47.393Z,125
2016-06-08T03:50:47.349Z,130
2016-06-08T03:51:47.335Z,135
2016-06-08T03:52:47.307Z,140
2016-06-08T03:53:47.154Z,145
2016-06-08T03:54:47.282Z,145
2016-06-08T03:55:47.268Z,150
2016-06-08T03:56:47.240Z,155
2016-06-08T03:57:47.226Z,155
2016-06-08T03:58:47.199Z,160
2016-06-08T03:59:47.186Z,160
2016-06-08T04:00:47.001Z,165
2016-06-08T04:01:47.143Z,170
2016-06-08T04:02:47.115Z,175
2016-06-08T04:03:47.103Z,180
2016-06-08T04:04:47.073Z,185
2016-06-08T04:05:47.061Z,185
2016-06-08T04:06:47.048Z,195
2016-06-08T04:07:47.035Z,200
2016-06-08T04:08:47.022Z,200
2016-06-08T04:09:46.994Z,205
2016-06-08T04:10:46.981Z,210
2016-06-08T04:11:46.952Z,220
2016-06-08T04:12:46.783Z,225
2016-06-08T04:13:46.925Z,230
2016-06-08T04:14:46.898Z,235
2016-06-08T04:15:46.870Z,240
2016-06-08T04:16:46.872Z,245
2016-06-08T04:17:46.843Z,245
2016-06-08T04:18:46.814Z,250
2016-06-08T04:19:46.802Z,255
2016-06-08T04:20:46.773Z,260
2016-06-08T04:21:46.760Z,265
2016-06-08T04:22:46.747Z,265
2016-06-08T04:23:46.735Z,270
2016-06-08T04:24:46.705Z,275
2016-06-08T04:25:46.693Z,280
2016-06-08T04:26:46.680Z,280
2016-06-08T04:27:47.338Z,285
2016-06-08T04:28:46.623Z,285
2016-06-08T04:29:46.609Z,285
2016-06-08T04:30:46.597Z,285
2016-06-08T04:31:46.569Z,290
2016-06-08T04:32:46.556Z,290
2016-06-08T04:33:46.543Z,295
2016-06-08T04:34:46.529Z,305
2016-06-08T04:35:46.501Z,310
2016-06-08T04:36:46.487Z,315
2016-06-08T04:37:46.459Z,320
2016-06-08T04:38:46.447Z,320
2016-06-08T04:39:46.278Z,325
2016-06-08T04:40:46.405Z,330
2016-06-08T04:41:46.408Z,330
2016-06-08T04:42:46.379Z,335
2016-06-08T04:43:46.350Z,340
2016-06-08T04:44:46.338Z,345
2016-06-08T04:45:46.308Z,345
2016-06-08T04:46:46.297Z,350
2016-06-08T04:47:46.284Z,355
2016-06-08T04:48:46.255Z,355
2016-06-08T04:49:46.241Z,365
2016-06-08T04:50:46.229Z,370
2016-06-08T04:51:46.544Z,385
2016-06-08T04:52:46.187Z,390
2016-06-08T04:53:46.628Z,395
2016-06-08T04:54:46.161Z,395
2016-06-08T04:55:46.133Z,405
2016-06-08T04:56:45.963Z,410
2016-06-08T04:57:46.591Z,415
2016-06-08T04:58:46.235Z,415
2016-06-08T04:59:46.065Z,415
2016-06-08T05:00:46.052Z,420
2016-06-08T05:01:46.023Z,425
2016-06-08T05:02:46.011Z,430
2016-06-08T05:03:45.983Z,450
2016-06-08T05:04:45.970Z,450
2016-06-08T05:05:45.957Z,435
2016-06-08T05:06:45.946Z,430
2016-06-08T05:07:45.928Z,430
2016-06-08T05:08:45.927Z,435
2016-06-08T05:09:45.907Z,440
2016-06-08T05:10:45.906Z,435
2016-06-08T05:11:45.900Z,435
2016-06-08T05:12:46.563Z,435
2016-06-08T05:13:46.085Z,435
2016-06-08T05:14:45.873Z,440
2016-06-08T05:15:45.848Z,440
2016-06-08T05:16:45.823Z,440
2016-06-08T05:17:45.655Z,445
2016-06-08T05:18:45.799Z,445
2016-06-08T05:19:45.772Z,435
2016-06-08T05:20:45.761Z,420
2016-06-08T05:21:45.749Z,420
2016-06-08T05:22:45.735Z,420
2016-06-08T05:23:45.724Z,425
2016-06-08T05:24:45.711Z,435
2016-06-08T05:25:45.683Z,450
2016-06-08T05:26:45.670Z,475
2016-06-08T05:27:46.189Z,495
2016-06-08T05:28:45.770Z,520
2016-06-08T05:29:45.664Z,540
2016-06-08T05:30:45.979Z,550
2016-06-08T05:31:45.576Z,560
2016-06-08T05:32:45.563Z,560
2016-06-08T05:33:45.535Z,580
2016-06-08T05:34:45.521Z,575
2016-06-08T05:35:45.509Z,580
2016-06-08T05:36:45.495Z,585
2016-06-08T05:37:45.327Z,595
2016-06-08T05:38:45.454Z,595
2016-06-08T05:39:45.441Z,605
2016-06-08T05:40:45.429Z,615
2016-06-08T05:41:45.415Z,625
2016-06-08T05:42:46.715Z,615
2016-06-08T05:43:45.061Z,610
2016-06-08T05:44:45.361Z,605
2016-06-08T05:45:45.348Z,605
2016-06-08T05:46:45.320Z,600
2016-06-08T05:47:45.306Z,600
2016-06-08T05:48:45.309Z,605
2016-06-08T05:49:45.281Z,605
2016-06-08T05:50:45.252Z,595
2016-06-08T05:51:45.411Z,595
2016-06-08T05:52:45.227Z,600
2016-06-08T05:53:45.213Z,595
2016-06-08T05:54:45.185Z,595
2016-06-08T05:55:45.171Z,600
2016-06-08T05:56:45.159Z,610
2016-06-08T05:57:46.333Z,635
2016-06-08T05:58:45.586Z,660
2016-06-08T05:59:45.104Z,675
2016-06-08T06:00:45.107Z,675
2016-06-08T06:01:45.079Z,680
2016-06-08T06:02:45.081Z,685
2016-06-08T06:03:45.052Z,695
2016-06-08T06:04:45.039Z,700
2016-06-08T06:05:45.027Z,710
2016-06-08T06:06:45.015Z,725
2016-06-08T06:07:44.985Z,730
2016-06-08T06:08:44.831Z,735
2016-06-08T06:09:44.959Z,750
2016-06-08T06:10:44.946Z,760
2016-06-08T06:11:44.777Z,765
2016-06-08T06:12:44.920Z,775
2016-06-08T06:13:44.892Z,785
2016-06-08T06:14:44.879Z,785
2016-06-08T06:15:44.867Z,795
2016-06-08T06:16:44.884Z,805
2016-06-08T06:17:44.840Z,810
2016-06-08T06:18:44.811Z,820
2016-06-08T06:19:44.799Z,890
2016-06-08T06:20:44.786Z,1060
2016-06-08T06:21:44.772Z,1220
2016-06-08T06:22:44.775Z,1230
2016-06-08T06:23:44.747Z,1190
2016-06-08T06:24:44.734Z,1155
2016-06-08T06:25:44.752Z,1140
2016-06-08T06:26:44.708Z,1115
2016-06-08T06:27:46.055Z,1130
2016-06-08T06:28:45.510Z,1100
2016-06-08T06:29:44.654Z,1095
2016-06-08T06:30:44.687Z,1060
2016-06-08T06:31:44.627Z,1020
2016-06-08T06:32:44.616Z,1030
2016-06-08T06:33:44.602Z,1030
2016-06-08T06:34:44.604Z,970
2016-06-08T06:35:44.577Z,920
2016-06-08T06:36:44.563Z,915
2016-06-08T06:37:44.551Z,950
2016-06-08T06:38:44.537Z,955
2016-06-08T06:39:44.540Z,940
2016-06-08T06:40:44.512Z,920
2016-06-08T06:41:44.498Z,1005
2016-06-08T06:42:44.376Z,1015
2016-06-08T06:43:44.660Z,1040
2016-06-08T06:44:44.460Z,1070
2016-06-08T06:45:44.447Z,1065
2016-06-08T06:46:44.606Z,1055
2016-06-08T06:47:44.265Z,1050
2016-06-08T06:48:44.392Z,1055
2016-06-08T06:49:44.380Z,1045
2016-06-08T06:50:44.382Z,1025
2016-06-08T06:51:44.353Z,1020
2016-06-08T06:52:44.341Z,1005
2016-06-08T06:53:44.344Z,995
2016-06-08T06:54:44.315Z,995
2016-06-08T06:55:44.302Z,1000
2016-06-08T06:56:44.149Z,1005
2016-06-08T06:57:44.682Z,1005
2016-06-08T06:58:44.591Z,1005
2016-06-08T06:59:44.250Z,995
2016-06-08T07:00:44.252Z,985
2016-06-08T07:01:44.240Z,1000
2016-06-08T07:02:44.211Z,990
2016-06-08T07:03:44.214Z,990
2016-06-08T07:04:44.202Z,980
2016-06-08T07:05:44.172Z,995
2016-06-08T07:06:44.160Z,1000
2016-06-08T07:07:44.163Z,1000
2016-06-08T07:08:44.134Z,1010
2016-06-08T07:09:44.121Z,1005
2016-06-08T07:10:44.107Z,1005
2016-06-08T07:11:44.095Z,1000
2016-06-08T07:12:44.082Z,1015
2016-06-08T07:13:44.881Z,1015
2016-06-08T07:14:43.915Z,1025
2016-06-08T07:15:44.058Z,1025
2016-06-08T07:16:44.045Z,1030
2016-06-08T07:17:44.018Z,1040
2016-06-08T07:18:44.004Z,1065
2016-06-08T07:19:44.106Z,1105
2016-06-08T07:20:43.998Z,1185
2016-06-08T07:21:44.081Z,1205
2016-06-08T07:22:43.957Z,2355
2016-06-08T07:23:44.028Z,2650
2016-06-08T07:24:43.982Z,2495
2016-06-08T07:25:43.953Z,2440
2016-06-08T07:26:43.909Z,2495
2016-06-08T07:27:43.912Z,2405
2016-06-08T07:28:43.900Z,2390
2016-06-08T07:29:43.730Z,2245
2016-06-08T07:30:43.733Z,2090
2016-06-08T07:31:43.875Z,2060
2016-06-08T07:32:43.863Z,2105
2016-06-08T07:33:44.100Z,2095
2016-06-08T07:34:43.837Z,2045
2016-06-08T07:35:43.830Z,2030
2016-06-08T07:36:43.645Z,1970
2016-06-08T07:37:43.804Z,1935
2016-06-08T07:38:43.792Z,1955
2016-06-08T07:39:43.778Z,1945
2016-06-08T07:40:43.766Z,2005
2016-06-08T07:41:43.758Z,1925
2016-06-08T07:42:43.744Z,1960
2016-06-08T07:43:43.935Z,2085
2016-06-08T07:44:43.719Z,2070
2016-06-08T07:45:43.721Z,2095
2016-06-08T07:46:43.708Z,2150
2016-06-08T07:47:43.710Z,2170
2016-06-08T07:48:43.557Z,2160
2016-06-08T07:49:43.669Z,2155
2016-06-08T07:50:43.519Z,2220
2016-06-08T07:51:43.654Z,2125
2016-06-08T07:52:43.641Z,2160
2016-06-08T07:53:43.629Z,2180
2016-06-08T07:54:44.818Z,2210
2016-06-08T07:55:43.618Z,2245
2016-06-08T07:56:43.639Z,2295
2016-06-08T07:57:43.609Z,2305
2016-06-08T07:58:43.628Z,2335
2016-06-08T07:59:43.568Z,2370
2016-06-08T08:00:43.570Z,2405
2016-06-08T08:01:43.558Z,2435
2016-06-08T08:02:43.545Z,2485
2016-06-08T08:03:43.548Z,2490
2016-06-08T08:04:43.535Z,2450
2016-06-08T08:05:43.538Z,2435
2016-06-08T08:06:43.369Z,2450
2016-06-08T08:07:43.512Z,2490
2016-06-08T08:08:43.500Z,2530
2016-06-08T08:09:43.502Z,2480
2016-06-08T08:10:43.489Z,2465
2016-06-08T08:11:43.338Z,2475
2016-06-08T08:12:43.466Z,2495
2016-06-08T08:13:43.500Z,2490
2016-06-08T08:14:43.463Z,2465
2016-06-08T08:15:43.450Z,2540
2016-06-08T08:16:43.437Z,2615
2016-06-08T08:17:43.502Z,2645
2016-06-08T08:18:43.271Z,2545
2016-06-08T08:19:43.414Z,2505
2016-06-08T08:20:43.401Z,2530
2016-06-08T08:21:43.404Z,2525
2016-06-08T08:22:43.234Z,2525
2016-06-08T08:23:43.441Z,2555
2016-06-08T08:24:43.397Z,2485
2016-06-08T08:25:43.383Z,2450
2016-06-08T08:26:43.387Z,2515
2016-06-08T08:27:43.373Z,2490
2016-06-08T08:28:43.063Z,2460
2016-06-08T08:29:43.035Z,2470
2016-06-08T08:30:43.350Z,2500
2016-06-08T08:31:43.337Z,2535
2016-06-08T08:32:43.323Z,2520
2016-06-08T08:33:43.326Z,2465
2016-06-08T08:34:43.329Z,2495
2016-06-08T08:35:43.550Z,2505
2016-06-08T08:36:43.881Z,2510
2016-06-08T08:37:43.306Z,2645
2016-06-08T08:38:43.278Z,2615
2016-06-08T08:39:43.281Z,2600
2016-06-08T08:40:43.267Z,2505
2016-06-08T08:41:43.270Z,2280
2016-06-08T08:42:43.273Z,2490
2016-06-08T08:43:43.386Z,2470
2016-06-08T08:44:43.122Z,2480
2016-06-08T08:45:43.250Z,2460
2016-06-08T08:46:43.486Z,2395
2016-06-08T08:47:43.505Z,2380
2016-06-08T08:48:43.398Z,2405
2016-06-08T08:49:43.401Z,2445
2016-06-08T08:50:43.263Z,2360
2016-06-08T08:51:43.218Z,2250
2016-06-08T08:52:43.206Z,2135
2016-06-08T08:53:43.209Z,1785
2016-06-08T08:54:43.179Z,1395
2016-06-08T08:55:43.042Z,1750
2016-06-08T08:56:43.185Z,1720
2016-06-08T08:57:43.251Z,2140
2016-06-08T08:58:43.051Z,2150
2016-06-08T08:59:44.226Z,2175
2016-06-08T09:00:43.148Z,2220
2016-06-08T09:01:43.168Z,2410
2016-06-08T09:02:43.109Z,2430
2016-06-08T09:03:43.142Z,2560
2016-06-08T09:04:43.270Z,2570
2016-06-08T09:05:43.116Z,2710
2016-06-08T09:06:43.150Z,2705
2016-06-08T09:07:42.950Z,2660
2016-06-08T09:08:43.108Z,2650
2016-06-08T09:09:43.095Z,2615
2016-06-08T09:10:43.083Z,2575
2016-06-08T09:11:42.928Z,2515
2016-06-08T09:12:43.072Z,2450
2016-06-08T09:13:43.263Z,2490
2016-06-08T09:14:43.484Z,2480
2016-06-08T09:15:43.096Z,2520
2016-06-08T09:16:42.896Z,2510
2016-06-08T09:17:43.039Z,2530
2016-06-08T09:18:43.041Z,2475
2016-06-08T09:19:43.029Z,2360
2016-06-08T09:20:43.047Z,1925
2016-06-08T09:21:42.878Z,1930
2016-06-08T09:22:43.021Z,1920
2016-06-08T09:23:42.915Z,1955
2016-06-08T09:24:43.135Z,1995
2016-06-08T09:25:42.998Z,2010
2016-06-08T09:26:42.985Z,2045
2016-06-08T09:27:42.972Z,1975
2016-06-08T09:28:42.990Z,1765
2016-06-08T09:29:43.461Z,1700
2016-06-08T09:30:42.684Z,1695
2016-06-08T09:31:43.029Z,1815
2016-06-08T09:32:42.954Z,2010
2016-06-08T09:33:42.784Z,2220
2016-06-08T09:34:42.787Z,2375
2016-06-08T09:35:42.931Z,2540
2016-06-08T09:36:42.917Z,2560
2016-06-08T09:37:42.920Z,2820
2016-06-08T09:38:42.923Z,2955
2016-06-08T09:39:42.895Z,2990
2016-06-08T09:40:42.898Z,2970
2016-06-08T09:41:42.978Z,2955
2016-06-08T09:42:42.950Z,2855
2016-06-08T09:43:42.765Z,2840
2016-06-08T09:44:43.112Z,2745
2016-06-08T09:45:42.739Z,2785
2016-06-08T09:46:42.711Z,2715
2016-06-08T09:47:42.854Z,2535
2016-06-08T09:48:42.888Z,2570
2016-06-08T09:49:42.844Z,2390
2016-06-08T09:50:42.862Z,2260
2016-06-08T09:51:42.880Z,2235
2016-06-08T09:52:42.663Z,2070
2016-06-08T09:53:42.667Z,2070
2016-06-08T09:54:42.810Z,1840
2016-06-08T09:55:42.797Z,2530
2016-06-08T09:56:42.784Z,2965
2016-06-08T09:57:42.646Z,2915
2016-06-08T09:58:42.805Z,2850
2016-06-08T09:59:44.120Z,2935
2016-06-08T10:00:42.764Z,2920
2016-06-08T10:01:42.767Z,2915
2016-06-08T10:02:42.770Z,2850
2016-06-08T10:03:42.787Z,2945
2016-06-08T10:04:42.806Z,2980
2016-06-08T10:05:42.746Z,2940
2016-06-08T10:06:42.734Z,2785
2016-06-08T10:07:42.737Z,2850
2016-06-08T10:08:42.722Z,2950
2016-06-08T10:09:42.726Z,2950
2016-06-08T10:10:42.728Z,2980
2016-06-08T10:11:42.715Z,3030
2016-06-08T10:12:42.593Z,3000
2016-06-08T10:13:43.830Z,3045
2016-06-08T10:14:43.489Z,2915
2016-06-08T10:15:42.695Z,2905
2016-06-08T10:16:42.698Z,2930
2016-06-08T10:17:42.560Z,3005
2016-06-08T10:18:42.687Z,3070
2016-06-08T10:19:42.674Z,2990
2016-06-08T10:20:42.677Z,2955
2016-06-08T10:21:42.524Z,2910
2016-06-08T10:22:42.666Z,2915
2016-06-08T10:23:42.669Z,2730
2016-06-08T10:24:42.687Z,1905
2016-06-08T10:25:42.659Z,1285
2016-06-08T10:26:42.646Z,1325
2016-06-08T10:27:42.883Z,1370
2016-06-08T10:28:43.152Z,1955
2016-06-08T10:29:42.779Z,2945
2016-06-08T10:30:42.641Z,3180
2016-06-08T10:31:42.940Z,3190
2016-06-08T10:32:42.616Z,1195
2016-06-08T10:33:42.634Z,1145
2016-06-08T10:34:42.465Z,3315
2016-06-08T10:35:42.608Z,3340
2016-06-08T10:36:42.626Z,3425
2016-06-08T10:37:42.442Z,3145
2016-06-08T10:38:42.601Z,1340
2016-06-08T10:39:42.587Z,2670
2016-06-08T10:40:42.606Z,2160
2016-06-08T10:41:42.593Z,1415
2016-06-08T10:42:42.627Z,3200
2016-06-08T10:43:43.458Z,3160
2016-06-08T10:44:43.258Z,3180
2016-06-08T10:45:42.572Z,3320
2016-06-08T10:46:42.653Z,3440
2016-06-08T10:47:42.546Z,3075
2016-06-08T10:48:42.627Z,1370
2016-06-08T10:49:42.536Z,1245
2016-06-08T10:50:42.555Z,1365
2016-06-08T10:51:42.385Z,2920
2016-06-08T10:52:42.857Z,3045
2016-06-08T10:53:42.532Z,1510
2016-06-08T10:54:42.519Z,1715
2016-06-08T10:55:42.537Z,3310
2016-06-08T10:56:42.617Z,3635
2016-06-08T10:57:42.510Z,3610
2016-06-08T10:58:42.810Z,3195
2016-06-08T10:59:42.704Z,2060
2016-06-08T11:00:42.722Z,3445
2016-06-08T11:01:42.491Z,1955
2016-06-08T11:02:42.509Z,3150
2016-06-08T11:03:42.480Z,3115
2016-06-08T11:04:42.482Z,1450
2016-06-08T11:05:42.517Z,1420
2016-06-08T11:06:42.473Z,3475
2016-06-08T11:07:42.476Z,3405
2016-06-08T11:08:42.462Z,3750
2016-06-08T11:09:42.465Z,1940
2016-06-08T11:10:42.452Z,2265
2016-06-08T11:11:42.486Z,3715
2016-06-08T11:12:42.442Z,3615
2016-06-08T11:13:42.194Z,3420
2016-06-08T11:14:43.525Z,2390
2016-06-08T11:15:42.278Z,3395
2016-06-08T11:16:42.421Z,2030
2016-06-08T11:17:42.424Z,1285
2016-06-08T11:18:42.427Z,3700
2016-06-08T11:19:42.413Z,3725
2016-06-08T11:20:42.417Z,3705
2016-06-08T11:21:42.576Z,2820
2016-06-08T11:22:42.405Z,2030
2016-06-08T11:23:42.394Z,1760
2016-06-08T11:24:42.396Z,2400
2016-06-08T11:25:42.399Z,1365
2016-06-08T11:26:42.386Z,1275
2016-06-08T11:27:42.388Z,1140
2016-06-08T11:28:42.391Z,1130
2016-06-08T11:29:43.300Z,1185
2016-06-08T11:30:42.459Z,1380
2016-06-08T11:31:42.259Z,3430
2016-06-08T11:32:42.465Z,3575
2016-06-08T11:33:42.404Z,3540
2016-06-08T11:34:42.376Z,1420
2016-06-08T11:35:42.348Z,1375
2016-06-08T11:36:42.475Z,3330
2016-06-08T11:37:42.400Z,3495
2016-06-08T11:38:42.370Z,3470
2016-06-08T11:39:42.358Z,3720
2016-06-08T11:40:42.159Z,3270
2016-06-08T11:41:42.332Z,3840
2016-06-08T11:42:42.335Z,3890
2016-06-08T11:43:41.994Z,3685
2016-06-08T11:44:42.794Z,3570
2016-06-08T11:45:42.000Z,3800
2016-06-08T11:46:42.300Z,3955
2016-06-08T11:47:42.317Z,3285
2016-06-08T11:48:42.305Z,3915
2016-06-08T11:49:42.307Z,1790
2016-06-08T11:50:42.138Z,1935
2016-06-08T11:51:42.141Z,4045
2016-06-08T11:52:42.299Z,3895
2016-06-08T11:53:42.114Z,1485
2016-06-08T11:54:42.289Z,1550
2016-06-08T11:55:42.119Z,1680
2016-06-08T11:56:42.280Z,3445
2016-06-08T11:57:42.110Z,1520
2016-06-08T11:58:41.815Z,1740
2016-06-08T11:59:42.287Z,1850
2016-06-08T12:00:42.852Z,1795
2016-06-08T12:01:42.276Z,1790
2016-06-08T12:02:42.108Z,2485
2016-06-08T12:03:41.954Z,3060
2016-06-08T12:04:42.097Z,3005
2016-06-08T12:05:42.241Z,2875
2016-06-08T12:06:42.228Z,2595
2016-06-08T12:07:42.231Z,2675
2016-06-08T12:08:41.921Z,2655
2016-06-08T12:09:42.220Z,2595
2016-06-08T12:10:42.223Z,2490
2016-06-08T12:11:42.210Z,2545
2016-06-08T12:12:43.790Z,2775
2016-06-08T12:13:42.215Z,2555
2016-06-08T12:14:42.203Z,2160
2016-06-08T12:15:42.033Z,2035
2016-06-08T12:16:42.192Z,2185
2016-06-08T12:17:42.023Z,2185
2016-06-08T12:18:42.025Z,2085
2016-06-08T12:19:42.169Z,2290
2016-06-08T12:20:42.155Z,2210
2016-06-08T12:21:42.205Z,2320
2016-06-08T12:22:42.161Z,2325
2016-06-08T12:23:42.149Z,2285
2016-06-08T12:24:41.979Z,2375
2016-06-08T12:25:41.982Z,2420
2016-06-08T12:26:42.125Z,2610
2016-06-08T12:27:41.988Z,2705
2016-06-08T12:28:42.116Z,2835
2016-06-08T12:29:42.868Z,3025
2016-06-08T12:30:42.104Z,3235
2016-06-08T12:31:42.092Z,3390
2016-06-08T12:32:42.079Z,3530
2016-06-08T12:33:42.082Z,3535
2016-06-08T12:34:42.084Z,3425
2016-06-08T12:35:42.071Z,3550
2016-06-08T12:36:42.465Z,3665
2016-06-08T12:37:42.076Z,3435
2016-06-08T12:38:42.064Z,3390
2016-06-08T12:39:42.082Z,3535
2016-06-08T12:40:42.053Z,3310
2016-06-08T12:41:42.056Z,3535
2016-06-08T12:42:42.043Z,3450
2016-06-08T12:43:42.046Z,3630
2016-06-08T12:44:41.892Z,3635
2016-06-08T12:45:42.036Z,3810
2016-06-08T12:46:42.039Z,3930
2016-06-08T12:47:42.041Z,3400
2016-06-08T12:48:42.028Z,2895
2016-06-08T12:49:41.875Z,3435
2016-06-08T12:50:42.033Z,3375
2016-06-08T12:51:42.020Z,3245
2016-06-08T12:52:42.023Z,3200
2016-06-08T12:53:42.025Z,2770
2016-06-08T12:54:42.028Z,2515
2016-06-08T12:55:42.031Z,2560
2016-06-08T12:56:42.018Z,2655
2016-06-08T12:57:42.037Z,2955
2016-06-08T12:58:42.008Z,2775
2016-06-08T12:59:41.949Z,2680
2016-06-08T13:00:41.858Z,2835
2016-06-08T13:01:42.001Z,3030
2016-06-08T13:02:42.019Z,2915
2016-06-08T13:03:42.006Z,2950
2016-06-08T13:04:41.837Z,2890
2016-06-08T13:05:41.996Z,2940
2016-06-08T13:06:41.982Z,2810
2016-06-08T13:07:41.985Z,2825
2016-06-08T13:08:41.847Z,2700
2016-06-08T13:09:41.990Z,2670
2016-06-08T13:10:41.979Z,2950
2016-06-08T13:11:41.996Z,3210
2016-06-08T13:12:41.967Z,3170
2016-06-08T13:13:41.970Z,3010
2016-06-08T13:14:42.879Z,3195
2016-06-08T13:15:41.820Z,3275
2016-06-08T13:16:41.962Z,3260
2016-06-08T13:17:41.965Z,3030
2016-06-08T13:18:41.952Z,2970
2016-06-08T13:19:41.939Z,3085
2016-06-08T13:20:41.943Z,3215
2016-06-08T13:21:41.945Z,3350
2016-06-08T13:22:41.932Z,3290
2016-06-08T13:23:41.935Z,3230
2016-06-08T13:24:41.938Z,3385
2016-06-08T13:25:41.925Z,3550
2016-06-08T13:26:41.927Z,3605
2016-06-08T13:27:41.930Z,3390
2016-06-08T13:28:41.933Z,3330
2016-06-08T13:29:42.685Z,3415
2016-06-08T13:30:42.125Z,3490
2016-06-08T13:31:41.925Z,3625
2016-06-08T13:32:41.927Z,3710
2016-06-08T13:33:41.915Z,3580
2016-06-08T13:34:41.918Z,2755
2016-06-08T13:35:41.921Z,2325
2016-06-08T13:36:41.907Z,2445
2016-06-08T13:37:41.909Z,2205
2016-06-08T13:38:41.896Z,2160
2016-06-08T13:39:41.900Z,2095
2016-06-08T13:40:41.902Z,2335
2016-06-08T13:41:41.890Z,2580
2016-06-08T13:42:41.892Z,2710
2016-06-08T13:43:41.739Z,2320
2016-06-08T13:44:41.742Z,2135
2016-06-08T13:45:41.901Z,1980